Time;durP1;ratioP1;P1;durP2;ratioP2;P2;SDS_P1;SDS_P2;PMS_P1;PMS_P2;Temp;Humidity;BMP_temperature;BMP_pressure;BME280_temperature;BME280_humidity;BME280_pressure;Samples;Min_cycle;Max_cycle;Signal;HPM_P1;HPM_P2
2021/09/02 00:01:26;;;;;;;4.37;3.87;;;15.00;92.40;;;;;;6296776;28;20472;-58
2021/09/02 00:04:29;;;;;;;4.60;4.07;;;14.90;92.30;;;;;;6296693;28;20912;-58
2021/09/02 00:07:33;;;;;;;5.80;4.33;;;14.90;92.50;;;;;;6296898;28;20480;-60
2021/09/02 00:10:36;;;;;;;5.47;3.80;;;14.90;92.60;;;;;;6296564;28;20477;-59
2021/09/02 00:13:39;;;;;;;6.20;5.60;;;14.80;92.50;;;;;;6296950;28;20481;-58
2021/09/02 00:16:44;;;;;;;6.57;4.50;;;14.80;92.60;;;;;;6296210;28;20481;-58
2021/09/02 00:19:47;;;;;;;6.30;4.80;;;14.80;92.80;;;;;;6294916;28;20530;-59
2021/09/02 00:22:50;;;;;;;6.70;5.60;;;14.70;93.40;;;;;;6295724;28;20535;-59
2021/09/02 00:25:53;;;;;;;5.20;4.70;;;14.60;93.40;;;;;;6321117;28;20476;-59
2021/09/02 00:28:56;;;;;;;4.70;3.90;;;14.50;94.00;;;;;;6320590;28;20472;-58
2021/09/02 00:32:01;;;;;;;4.43;4.00;;;14.40;94.10;;;;;;6321022;28;20464;-58
2021/09/02 00:35:05;;;;;;;6.47;4.90;;;14.40;94.30;;;;;;6323398;28;20581;-59
2021/09/02 00:38:09;;;;;;;6.80;4.30;;;14.40;95.20;;;;;;6322902;28;21030;-58
2021/09/02 00:41:12;;;;;;;5.23;4.43;;;14.50;94.80;;;;;;6323812;28;20468;-58
2021/09/02 00:44:33;;;;;;;5.33;4.73;;;14.40;94.60;;;;;;6322109;28;20977;-59
2021/09/02 00:47:38;;;;;;;4.67;4.03;;;14.40;94.90;;;;;;6333620;28;20465;-59
2021/09/02 00:50:41;;;;;;;5.50;4.87;;;14.40;94.90;;;;;;6336620;28;21027;-59
2021/09/02 00:53:46;;;;;;;5.13;4.13;;;14.40;95.40;;;;;;6331267;28;20464;-59
2021/09/02 00:56:49;;;;;;;6.07;4.10;;;14.30;95.40;;;;;;6332521;28;20484;-59
2021/09/02 00:59:54;;;;;;;5.60;5.00;;;14.30;95.60;;;;;;6340548;27;20479;-59
2021/09/02 01:02:59;;;;;;;4.33;3.93;;;14.20;95.50;;;;;;6330844;28;20976;-59
2021/09/02 01:06:02;;;;;;;4.97;3.87;;;14.20;96.00;;;;;;6340279;28;21784;-58
2021/09/02 01:09:06;;;;;;;5.90;3.80;;;14.10;95.90;;;;;;6352647;28;20471;-59
2021/09/02 01:12:32;;;;;;;5.00;4.23;;;14.10;96.00;;;;;;6353349;28;20467;-59
2021/09/02 01:15:35;;;;;;;5.17;4.33;;;14.00;96.00;;;;;;6353409;28;20483;-59
2021/09/02 01:18:40;;;;;;;4.97;4.30;;;14.00;96.10;;;;;;6352921;28;20471;-58
2021/09/02 01:21:43;;;;;;;6.40;4.53;;;14.00;96.30;;;;;;6352660;28;20463;-59
2021/09/02 01:24:47;;;;;;;5.10;4.03;;;14.00;96.40;;;;;;6352987;27;20462;-59
2021/09/02 01:27:52;;;;;;;4.80;3.90;;;14.00;96.70;;;;;;6352534;28;20462;-59
2021/09/02 01:30:56;;;;;;;5.23;4.10;;;14.00;96.40;;;;;;6352737;27;20968;-58
2021/09/02 01:33:59;;;;;;;4.70;4.23;;;13.90;96.80;;;;;;6352477;28;20909;-59
2021/09/02 01:37:02;;;;;;;6.03;4.67;;;13.90;96.80;;;;;;6352517;28;20541;-59
2021/09/02 01:40:08;;;;;;;6.63;3.93;;;13.90;96.90;;;;;;6352505;28;20475;-58
2021/09/02 01:43:15;;;;;;;5.30;4.43;;;13.90;96.80;;;;;;6343341;27;20464;-59
2021/09/02 01:46:18;;;;;;;4.17;3.77;;;13.90;96.80;;;;;;6340638;28;20474;-59
2021/09/02 01:49:21;;;;;;;6.13;4.77;;;13.90;96.90;;;;;;6329712;28;20479;-59
2021/09/02 01:52:24;;;;;;;4.67;3.77;;;13.70;97.00;;;;;;6327039;28;20473;-59
2021/09/02 01:55:29;;;;;;;4.23;3.70;;;13.60;97.20;;;;;;6322422;28;20471;-58
2021/09/02 01:58:32;;;;;;;4.30;3.73;;;13.60;97.50;;;;;;6326963;28;20483;-59
2021/09/02 02:01:35;;;;;;;5.17;4.70;;;13.50;97.90;;;;;;6326839;28;20479;-59
2021/09/02 02:04:39;;;;;;;4.33;3.30;;;13.60;97.80;;;;;;6326176;28;20929;-58
2021/09/02 02:07:42;;;;;;;4.63;3.80;;;13.60;97.80;;;;;;6326486;28;20472;-58
2021/09/02 02:10:47;;;;;;;4.73;4.30;;;13.60;97.90;;;;;;6327056;28;20468;-59
2021/09/02 02:13:50;;;;;;;4.80;4.03;;;13.60;98.00;;;;;;6326341;28;20826;-59
2021/09/02 02:16:53;;;;;;;4.70;4.00;;;13.60;98.20;;;;;;6326539;28;20973;-59
2021/09/02 02:19:56;;;;;;;4.97;4.50;;;13.60;98.20;;;;;;6326381;28;20484;-59
2021/09/02 02:22:59;;;;;;;7.53;4.27;;;13.60;98.20;;;;;;6326205;28;20815;-59
2021/09/02 02:26:04;;;;;;;5.70;3.80;;;13.50;98.30;;;;;;6326312;28;20472;-58
2021/09/02 02:29:07;;;;;;;5.53;5.03;;;13.60;98.50;;;;;;6325885;28;20820;-59
2021/09/02 02:32:10;;;;;;;4.40;4.00;;;13.50;98.60;;;;;;6325945;28;20468;-59
2021/09/02 02:35:15;;;;;;;4.13;3.83;;;13.60;98.80;;;;;;6326167;28;20483;-58
2021/09/02 02:38:19;;;;;;;4.57;3.90;;;13.50;98.60;;;;;;6325850;28;20546;-59
2021/09/02 02:41:23;;;;;;;4.43;3.90;;;13.50;98.80;;;;;;6325747;28;20464;-58
2021/09/02 02:44:26;;;;;;;4.63;4.23;;;13.40;98.70;;;;;;6325752;28;20861;-59
2021/09/02 02:47:29;;;;;;;5.20;3.70;;;13.50;98.90;;;;;;6324827;28;20479;-59
2021/09/02 02:50:33;;;;;;;4.93;4.00;;;13.40;98.80;;;;;;6325715;28;20464;-58
2021/09/02 02:53:37;;;;;;;4.40;4.00;;;13.40;98.90;;;;;;6325545;28;20472;-58
2021/09/02 02:56:41;;;;;;;4.10;3.53;;;13.30;99.00;;;;;;6325240;28;20985;-59
2021/09/02 02:59:44;;;;;;;4.90;3.77;;;13.30;99.00;;;;;;6320912;28;20480;-58
2021/09/02 03:02:47;;;;;;;7.07;4.63;;;13.30;99.10;;;;;;6325500;28;20469;-59
2021/09/02 03:05:51;;;;;;;4.03;3.40;;;13.10;99.40;;;;;;6325040;28;20483;-58
2021/09/02 03:08:54;;;;;;;4.80;4.33;;;13.10;99.80;;;;;;6324706;28;20471;-58
2021/09/02 03:11:58;;;;;;;4.17;3.77;;;13.00;99.80;;;;;;6324662;28;20812;-58
2021/09/02 03:15:01;;;;;;;5.07;4.60;;;13.00;99.90;;;;;;6323624;28;20472;-59
2021/09/02 03:18:05;;;;;;;5.60;5.00;;;13.00;99.90;;;;;;6324098;28;20606;-58
2021/09/02 03:21:08;;;;;;;5.00;4.20;;;13.00;99.90;;;;;;6324810;28;20464;-59
2021/09/02 03:24:12;;;;;;;4.53;4.07;;;12.90;99.90;;;;;;6324784;28;20472;-59
2021/09/02 03:27:16;;;;;;;6.33;4.97;;;12.90;99.90;;;;;;6324634;28;20476;-58
2021/09/02 03:30:19;;;;;;;4.97;4.17;;;12.90;99.90;;;;;;6324742;28;20483;-59
2021/09/02 03:33:22;;;;;;;5.93;4.83;;;12.90;99.90;;;;;;6324414;28;20468;-59
2021/09/02 03:36:25;;;;;;;7.10;4.67;;;12.90;99.90;;;;;;6324816;28;20515;-59
2021/09/02 03:39:32;;;;;;;5.60;4.70;;;12.90;99.90;;;;;;6324229;28;20468;-59
2021/09/02 03:42:36;;;;;;;4.57;4.17;;;13.00;99.90;;;;;;6324743;28;20468;-59
2021/09/02 03:45:40;;;;;;;5.53;4.47;;;13.10;99.90;;;;;;6324229;28;20480;-58
2021/09/02 03:48:43;;;;;;;6.70;4.23;;;13.10;99.90;;;;;;6324830;28;20478;-59
2021/09/02 03:51:46;;;;;;;5.77;5.10;;;13.10;99.90;;;;;;6324432;28;20487;-59
2021/09/02 03:54:49;;;;;;;6.83;4.63;;;13.10;99.90;;;;;;6324970;28;20460;-59
2021/09/02 03:57:53;;;;;;;5.23;4.50;;;13.10;99.90;;;;;;6324194;28;20468;-60
2021/09/02 04:00:57;;;;;;;8.13;4.20;;;13.10;99.90;;;;;;6314444;28;20938;-59
2021/09/02 04:04:00;;;;;;;5.27;4.30;;;13.10;99.90;;;;;;6323879;28;20470;-59
2021/09/02 04:07:05;;;;;;;5.70;5.20;;;13.00;99.90;;;;;;6324280;28;20460;-58
2021/09/02 04:10:10;;;;;;;6.93;4.30;;;13.00;99.90;;;;;;6324131;28;20479;-59
2021/09/02 04:13:14;;;;;;;6.00;4.50;;;12.90;99.90;;;;;;6324498;28;20479;-59
2021/09/02 04:16:17;;;;;;;5.30;3.70;;;12.90;99.90;;;;;;6324160;28;20471;-59
2021/09/02 04:19:20;;;;;;;6.13;5.00;;;12.90;99.90;;;;;;6324020;28;20476;-58
2021/09/02 04:22:23;;;;;;;5.87;5.10;;;13.00;99.90;;;;;;6324490;28;20468;-58
2021/09/02 04:25:27;;;;;;;6.00;4.50;;;13.00;99.90;;;;;;6323768;28;20468;-58
2021/09/02 04:28:32;;;;;;;8.30;4.60;;;12.90;99.90;;;;;;6328872;28;20815;-60
2021/09/02 04:31:35;;;;;;;7.23;5.17;;;12.90;99.90;;;;;;6329068;28;20480;-59
2021/09/02 04:34:38;;;;;;;4.33;3.93;;;12.90;99.90;;;;;;6329345;28;20467;-59
2021/09/02 04:37:43;;;;;;;8.00;4.97;;;12.90;99.90;;;;;;6328615;28;20829;-60
2021/09/02 04:40:47;;;;;;;6.30;5.67;;;12.90;99.90;;;;;;6328645;28;20969;-58
2021/09/02 04:43:52;;;;;;;6.07;4.60;;;12.90;99.90;;;;;;6328108;28;21022;-58
2021/09/02 04:46:55;;;;;;;5.50;4.03;;;13.00;99.90;;;;;;6328711;28;20472;-58
2021/09/02 04:49:58;;;;;;;5.50;4.20;;;12.90;99.90;;;;;;6328318;28;20483;-58
2021/09/02 04:53:01;;;;;;;5.03;4.53;;;12.90;99.90;;;;;;6328578;28;20460;-58
2021/09/02 04:56:05;;;;;;;7.90;4.73;;;12.70;99.90;;;;;;6328536;28;20479;-58
2021/09/02 04:59:10;;;;;;;6.00;5.17;;;12.70;99.90;;;;;;6327999;28;20480;-58
2021/09/02 05:02:13;;;;;;;7.20;4.53;;;12.70;99.90;;;;;;6328395;28;20545;-58
2021/09/02 05:05:16;;;;;;;4.87;4.47;;;12.80;99.90;;;;;;6323834;28;20969;-59
2021/09/02 05:08:21;;;;;;;5.10;4.07;;;12.90;99.90;;;;;;6328057;28;20488;-58
2021/09/02 05:11:25;;;;;;;5.47;4.83;;;13.00;99.90;;;;;;6327747;28;20464;-58
2021/09/02 05:14:29;;;;;;;7.80;5.20;;;13.10;99.90;;;;;;6327877;28;20464;-58
2021/09/02 05:17:33;;;;;;;5.60;4.13;;;13.00;99.90;;;;;;6327524;28;20511;-58
2021/09/02 05:20:36;;;;;;;8.27;4.47;;;13.10;99.90;;;;;;6327586;28;20974;-58
2021/09/02 05:23:39;;;;;;;5.30;4.80;;;13.20;99.90;;;;;;6327833;28;20479;-58
2021/09/02 05:26:43;;;;;;;5.80;4.43;;;13.30;99.90;;;;;;6327610;28;20478;-58
2021/09/02 05:29:47;;;;;;;7.07;4.80;;;13.40;99.90;;;;;;6327410;28;20471;-58
2021/09/02 05:32:50;;;;;;;7.17;5.37;;;13.40;99.90;;;;;;6327735;28;20469;-58
2021/09/02 05:35:53;;;;;;;9.03;8.23;;;13.40;99.90;;;;;;6327598;28;20483;-58
2021/09/02 05:38:56;;;;;;;7.53;5.03;;;13.50;99.90;;;;;;6326090;28;20491;-58
2021/09/02 05:42:00;;;;;;;7.30;5.20;;;13.50;99.90;;;;;;6327344;28;20468;-60
2021/09/02 05:45:05;;;;;;;6.90;4.60;;;13.70;99.90;;;;;;6326898;28;20651;-59
2021/09/02 05:48:09;;;;;;;5.60;4.83;;;13.80;99.90;;;;;;6327081;28;20973;-59
2021/09/02 05:51:12;;;;;;;5.70;5.10;;;13.80;99.90;;;;;;6327004;28;20483;-59
2021/09/02 05:54:15;;;;;;;5.30;4.80;;;13.90;99.90;;;;;;6326906;28;20996;-59
2021/09/02 05:57:19;;;;;;;6.77;4.97;;;14.10;99.90;;;;;;6326468;28;20484;-59
2021/09/02 06:00:24;;;;;;;7.13;5.47;;;14.30;99.90;;;;;;6326836;28;20954;-59
2021/09/02 06:03:27;;;;;;;8.03;6.13;;;14.60;99.90;;;;;;6326269;28;20483;-59
2021/09/02 06:06:31;;;;;;;9.47;6.60;;;15.10;99.90;;;;;;6326566;28;20483;-59
2021/09/02 06:09:34;;;;;;;6.73;5.37;;;16.00;98.90;;;;;;6326285;28;20479;-59
2021/09/02 06:12:38;;;;;;;7.53;5.70;;;17.10;97.30;;;;;;6321880;28;20480;-59
2021/09/02 06:15:43;;;;;;;9.00;5.30;;;18.30;95.20;;;;;;6326407;28;20483;-59
2021/09/02 06:18:46;;;;;;;9.27;6.30;;;19.10;92.90;;;;;;6326017;28;20482;-59
2021/09/02 06:21:49;;;;;;;6.20;5.20;;;19.80;90.90;;;;;;6325961;28;20452;-59
2021/09/02 06:24:52;;;;;;;8.70;5.87;;;20.80;87.30;;;;;;6325806;28;20636;-61
2021/09/02 06:27:55;;;;;;;10.00;5.87;;;22.00;82.00;;;;;;6326392;28;20229;-59
2021/09/02 06:30:59;;;;;;;7.67;5.30;;;23.10;75.00;;;;;;6326254;28;20233;-59
2021/09/02 06:34:03;;;;;;;8.13;6.10;;;23.80;70.30;;;;;;6326353;28;20293;-59
2021/09/02 06:37:06;;;;;;;6.80;6.20;;;24.30;66.60;;;;;;6325870;28;20226;-59
2021/09/02 06:40:10;;;;;;;7.37;5.67;;;25.00;64.40;;;;;;6326385;28;20229;-59
2021/09/02 06:43:14;;;;;;;8.57;5.83;;;25.90;59.80;;;;;;6325478;28;20226;-59
2021/09/02 06:46:18;;;;;;;8.67;5.47;;;26.80;57.10;;;;;;6325913;28;20222;-59
2021/09/02 06:49:21;;;;;;;12.20;6.30;;;27.60;53.90;;;;;;6325535;28;20297;-60
2021/09/02 06:52:25;;;;;;;7.90;6.50;;;28.00;52.20;;;;;;6325612;28;20244;-59
2021/09/02 06:55:28;;;;;;;9.27;6.43;;;28.60;50.20;;;;;;6325596;28;20225;-59
2021/09/02 06:58:31;;;;;;;11.00;7.20;;;29.30;48.40;;;;;;6325821;28;20221;-59
2021/09/02 07:01:35;;;;;;;7.93;6.73;;;29.80;46.20;;;;;;6325490;28;20248;-60
2021/09/02 07:04:39;;;;;;;11.80;7.03;;;30.40;45.00;;;;;;6325069;28;20535;-59
2021/09/02 07:07:42;;;;;;;12.10;7.03;;;31.30;43.50;;;;;;6325001;28;20229;-59
2021/09/02 07:11:01;;;;;;;10.05;7.93;;;32.30;42.00;;;;;;6324760;28;20312;-60
2021/09/02 07:14:04;;;;;;;16.05;8.48;;;33.30;40.60;;;;;;6316214;28;20252;-60
2021/09/02 07:17:09;;;;;;;13.20;8.00;;;34.00;39.30;;;;;;6324138;28;20564;-59
2021/09/02 07:20:13;;;;;;;12.82;8.48;;;34.60;37.70;;;;;;6324978;28;20229;-59
2021/09/02 07:23:16;;;;;;;11.65;8.38;;;35.10;36.60;;;;;;6324420;28;20600;-60
2021/09/02 07:26:20;;;;;;;11.55;8.95;;;35.70;34.90;;;;;;6324739;28;20230;-60
2021/09/02 07:29:23;;;;;;;11.25;8.63;;;36.30;34.10;;;;;;6324874;28;20230;-60
2021/09/02 07:32:28;;;;;;;12.45;8.57;;;37.10;33.10;;;;;;6324633;28;20640;-60
2021/09/02 07:35:31;;;;;;;14.32;7.95;;;38.00;31.70;;;;;;6324177;28;20715;-60
2021/09/02 07:38:34;;;;;;;13.00;8.15;;;38.50;30.80;;;;;;6324627;28;20282;-60
2021/09/02 07:41:37;;;;;;;12.68;8.57;;;39.30;29.80;;;;;;6324864;28;20221;-60
2021/09/02 07:44:40;;;;;;;11.50;7.95;;;39.90;28.90;;;;;;6324768;28;20221;-59
2021/09/02 07:47:45;;;;;;;15.57;9.75;;;40.40;28.80;;;;;;6324330;28;20233;-60
2021/09/02 07:50:49;;;;;;;13.50;8.07;;;40.80;28.10;;;;;;6324509;28;20225;-60
2021/09/02 07:53:52;;;;;;;11.82;8.60;;;41.00;27.30;;;;;;6324426;28;20229;-60
2021/09/02 07:56:55;;;;;;;10.48;7.70;;;41.40;27.10;;;;;;6324052;28;20240;-60
2021/09/02 07:59:58;;;;;;;13.55;7.72;;;41.90;26.70;;;;;;6324016;28;20237;-59
2021/09/02 08:03:03;;;;;;;8.38;7.35;;;42.50;26.30;;;;;;6323597;28;20225;-59
2021/09/02 08:06:07;;;;;;;10.30;6.93;;;41.90;26.00;;;;;;6324109;28;20722;-59
2021/09/02 08:09:10;;;;;;;8.98;7.30;;;42.60;25.60;;;;;;6323807;28;20603;-59
2021/09/02 08:12:13;;;;;;;7.38;6.57;;;43.20;24.80;;;;;;6324022;28;20241;-59
2021/09/02 08:15:18;;;;;;;7.88;5.57;;;43.50;24.00;;;;;;6323842;28;20229;-59
2021/09/02 08:18:22;;;;;;;7.97;5.80;;;43.50;23.70;;;;;;6319561;28;20233;-59
2021/09/02 08:21:26;;;;;;;6.30;5.65;;;43.60;23.60;;;;;;6323527;28;20721;-59
2021/09/02 08:24:29;;;;;;;10.40;6.57;;;43.40;23.90;;;;;;6323533;28;20233;-59
2021/09/02 08:27:33;;;;;;;8.55;6.10;;;43.80;23.90;;;;;;6331363;28;20236;-59
2021/09/02 08:30:36;;;;;;;7.13;5.20;;;45.10;23.30;;;;;;6335197;28;20234;-59
2021/09/02 08:33:41;;;;;;;4.75;4.25;;;46.10;22.30;;;;;;6332328;28;20233;-59
2021/09/02 08:36:44;;;;;;;5.75;4.80;;;47.20;21.70;;;;;;6332206;28;20236;-59
2021/09/02 08:39:48;;;;;;;6.10;5.50;;;47.70;20.80;;;;;;6334535;28;20684;-59
2021/09/02 08:42:54;;;;;;;5.47;4.70;;;47.90;20.30;;;;;;6335301;28;20212;-59
2021/09/02 08:45:57;;;;;;;5.22;4.50;;;48.60;19.80;;;;;;6331976;28;20201;-60
2021/09/02 08:49:04;;;;;;;7.03;4.20;;;48.80;19.80;;;;;;6335221;28;20216;-59
2021/09/02 08:52:07;;;;;;;6.50;4.20;;;48.30;20.00;;;;;;6334333;28;20213;-59
2021/09/02 08:55:11;;;;;;;5.50;4.85;;;48.90;19.50;;;;;;6331098;28;20232;-60
2021/09/02 08:58:15;;;;;;;4.90;4.53;;;49.10;19.30;;;;;;6348508;28;20231;-60
2021/09/02 09:01:18;;;;;;;5.03;4.35;;;50.20;18.80;;;;;;6339779;28;20239;-60
2021/09/02 09:04:23;;;;;;;5.13;4.72;;;50.90;18.40;;;;;;6333719;28;20227;-60
2021/09/02 09:07:29;;;;;;;4.40;4.10;;;51.60;18.20;;;;;;6334870;28;20228;-60
2021/09/02 09:10:32;;;;;;;6.00;4.97;;;51.70;17.40;;;;;;6336449;28;20221;-59
2021/09/02 09:13:36;;;;;;;5.20;4.80;;;52.10;17.20;;;;;;6341286;28;20231;-60
2021/09/02 09:16:53;;;;;;;5.30;4.75;;;50.80;17.70;;;;;;6353639;28;20242;-60
2021/09/02 09:19:58;;;;;;;5.20;4.70;;;50.00;18.00;;;;;;6348257;28;20594;-60
2021/09/02 09:23:01;;;;;;;5.25;4.75;;;51.50;17.30;;;;;;6352931;28;20243;-60
2021/09/02 09:26:11;;;;;;;4.80;4.50;;;51.50;17.10;;;;;;6352983;27;20235;-60
2021/09/02 09:29:18;;;;;;;5.50;5.07;;;51.80;17.10;;;;;;6346937;28;20233;-60
2021/09/02 09:32:21;;;;;;;4.85;4.40;;;52.80;17.00;;;;;;6338750;28;20219;-60
2021/09/02 09:35:28;;;;;;;4.82;4.53;;;53.20;16.30;;;;;;6340163;28;20597;-60
2021/09/02 09:38:31;;;;;;;4.43;3.90;;;53.50;16.10;;;;;;6335551;28;20224;-59
2021/09/02 09:41:39;;;;;;;5.38;4.53;;;52.00;16.10;;;;;;6339570;28;20224;-59
2021/09/02 09:44:43;;;;;;;5.22;4.80;;;49.40;17.20;;;;;;6340009;28;20239;-61
2021/09/02 09:47:46;;;;;;;5.30;4.75;;;47.60;18.00;;;;;;6338190;28;20232;-60
2021/09/02 09:51:15;;;;;;;5.05;4.75;;;45.90;19.00;;;;;;6335351;27;20241;-59
2021/09/02 09:54:26;;;;;;;4.65;4.25;;;44.60;19.50;;;;;;6337853;28;20233;-60
2021/09/02 09:57:31;;;;;;;5.20;4.70;;;42.90;20.50;;;;;;6334312;28;20253;-60
2021/09/02 10:00:34;;;;;;;6.45;5.95;;;40.80;21.70;;;;;;6339613;28;20225;-59
2021/09/02 10:03:38;;;;;;;5.68;5.18;;;35.90;25.00;;;;;;6337114;28;20309;-60
2021/09/02 10:06:43;;;;;;;5.80;5.30;;;34.50;27.30;;;;;;6320331;28;20569;-60
2021/09/02 10:09:47;;;;;;;5.63;5.13;;;33.80;28.20;;;;;;6316637;28;20564;-59
2021/09/02 10:12:51;;;;;;;5.72;5.22;;;33.70;28.50;;;;;;6298939;28;20248;-62
2021/09/02 10:15:55;;;;;;;5.57;4.78;;;33.70;28.50;;;;;;6320198;28;20202;-61
2021/09/02 10:18:59;;;;;;;4.88;4.57;;;33.40;28.80;;;;;;6323626;28;20606;-61
2021/09/02 10:22:04;;;;;;;5.53;4.95;;;33.10;28.80;;;;;;6322432;28;20753;-61
2021/09/02 10:25:37;;;;;;;7.97;5.65;;;32.50;29.30;;;;;;6298518;28;20198;-60
2021/09/02 10:28:40;;;;;;;4.97;4.55;;;32.10;29.80;;;;;;6298722;28;20237;-61
2021/09/02 10:31:44;;;;;;;5.03;4.55;;;31.80;30.80;;;;;;6298910;28;20233;-62
2021/09/02 10:34:47;;;;;;;5.45;4.60;;;31.40;31.20;;;;;;6298511;28;20640;-60
2021/09/02 10:37:55;;;;;;;5.53;4.95;;;31.00;32.00;;;;;;6298391;28;20234;-59
2021/09/02 10:40:59;;;;;;;5.70;4.80;;;30.30;33.00;;;;;;6315485;28;20259;-60
2021/09/02 10:44:02;;;;;;;5.90;5.40;;;30.10;33.50;;;;;;6323548;28;20323;-63
2021/09/02 10:47:18;;;;;;;5.47;4.80;;;30.00;34.10;;;;;;6323282;28;20733;-60
2021/09/02 10:50:24;;;;;;;9.00;5.07;;;30.20;34.40;;;;;;6323257;28;20675;-60
2021/09/02 10:53:29;;;;;;;5.73;5.23;;;30.20;33.50;;;;;;6323070;28;20233;-61
2021/09/02 10:56:33;;;;;;;6.20;5.40;;;30.30;33.60;;;;;;6322756;28;20229;-60
2021/09/02 10:59:39;;;;;;;6.38;5.78;;;30.20;33.70;;;;;;6322427;28;20709;-61
2021/09/02 11:02:42;;;;;;;7.20;4.90;;;30.30;33.50;;;;;;6322839;28;20885;-61
2021/09/02 11:05:50;;;;;;;6.30;5.47;;;30.60;33.60;;;;;;6318413;28;20363;-59
2021/09/02 11:08:54;;;;;;;4.82;4.43;;;30.50;33.70;;;;;;6297462;28;20668;-61
2021/09/02 11:11:58;;;;;;;6.30;5.80;;;30.60;33.80;;;;;;6297682;28;20245;-62
2021/09/02 11:15:01;;;;;;;8.17;6.60;;;30.60;33.80;;;;;;6313566;28;20727;-59
2021/09/02 11:18:06;;;;;;;6.53;5.93;;;30.10;34.00;;;;;;6322534;28;20230;-60
2021/09/02 11:21:20;;;;;;;5.03;4.50;;;29.90;34.40;;;;;;6322186;28;20761;-60
2021/09/02 11:24:25;;;;;;;5.43;4.87;;;29.90;34.70;;;;;;6322274;28;20224;-59
2021/09/02 11:27:30;;;;;;;5.73;5.27;;;29.80;35.20;;;;;;6322151;28;20241;-60
2021/09/02 11:30:35;;;;;;;5.60;5.10;;;29.90;35.50;;;;;;6317709;28;20225;-60
2021/09/02 11:33:45;;;;;;;5.97;5.37;;;30.00;34.90;;;;;;6321974;28;20692;-61
2021/09/02 11:36:48;;;;;;;4.93;4.53;;;30.00;35.60;;;;;;6321297;28;20252;-60
2021/09/02 11:39:53;;;;;;;6.00;5.47;;;30.10;35.40;;;;;;6318345;28;20230;-61
2021/09/02 11:42:57;;;;;;;6.00;5.40;;;30.20;34.90;;;;;;6297275;28;20213;-62
2021/09/02 11:46:06;;;;;;;5.20;4.70;;;30.10;35.20;;;;;;6296636;28;20210;-59
2021/09/02 11:49:16;;;;;;;5.10;4.70;;;29.90;35.00;;;;;;6296766;28;20555;-60
2021/09/02 11:52:19;;;;;;;5.20;4.63;;;29.70;35.50;;;;;;6296742;28;20237;-62
2021/09/02 11:55:32;;;;;;;5.50;5.00;;;29.40;36.30;;;;;;6296872;28;20251;-60
2021/09/02 11:58:35;;;;;;;6.00;5.50;;;28.80;37.30;;;;;;6296884;28;20230;-62
2021/09/02 12:01:43;;;;;;;5.73;5.13;;;28.50;38.10;;;;;;6296732;28;20233;-60
2021/09/02 12:04:50;;;;;;;7.07;5.27;;;28.90;37.70;;;;;;6297032;28;20297;-60
2021/09/02 12:07:56;;;;;;;6.20;5.57;;;29.10;37.00;;;;;;6298244;28;20230;-60
2021/09/02 12:11:00;;;;;;;8.23;5.20;;;28.20;38.40;;;;;;6305264;28;20223;-60
2021/09/02 12:14:14;;;;;;;5.63;5.10;;;28.50;39.00;;;;;;6312025;28;20230;-60
2021/09/02 12:17:18;;;;;;;6.07;5.17;;;29.20;37.50;;;;;;6311323;28;20233;-61
2021/09/02 12:20:25;;;;;;;9.30;5.50;;;29.70;36.70;;;;;;6321447;28;20236;-59
2021/09/02 12:23:29;;;;;;;5.27;4.77;;;29.60;37.60;;;;;;6321213;28;20225;-60
2021/09/02 12:26:47;;;;;;;7.27;6.47;;;29.40;37.90;;;;;;6299950;28;20568;-60
2021/09/02 12:29:52;;;;;;;5.67;5.17;;;29.20;38.00;;;;;;6296004;28;20237;-60
2021/09/02 12:33:09;;;;;;;5.83;5.33;;;28.80;38.90;;;;;;6287328;28;20550;-59
2021/09/02 12:36:18;;;;;;;5.93;5.33;;;28.80;39.10;;;;;;6296270;28;20237;-61
2021/09/02 12:39:23;;;;;;;5.97;5.47;;;28.30;39.70;;;;;;6296431;28;20367;-60
2021/09/02 12:42:29;;;;;;;6.10;5.50;;;27.80;40.80;;;;;;6307399;28;20233;-61
2021/09/02 12:45:32;;;;;;;5.50;5.03;;;27.50;41.40;;;;;;6321154;28;20304;-61
2021/09/02 12:48:36;;;;;;;5.03;4.53;;;27.50;41.60;;;;;;6324761;28;20233;-61
2021/09/02 12:51:39;;;;;;;6.47;5.27;;;27.50;42.10;;;;;;6326056;28;20617;-61
2021/09/02 12:55:05;;;;;;;6.23;5.47;;;27.30;42.30;;;;;;6325900;28;20294;-59
2021/09/02 12:58:10;;;;;;;6.43;5.03;;;27.50;42.10;;;;;;6326113;28;20271;-60
2021/09/02 13:01:13;;;;;;;6.50;5.37;;;27.80;42.00;;;;;;6325501;28;20229;-60
2021/09/02 13:04:16;;;;;;;7.97;5.33;;;28.00;41.20;;;;;;6326021;28;20236;-60
2021/09/02 13:07:20;;;;;;;5.23;4.73;;;28.00;41.50;;;;;;6315145;28;20234;-60
2021/09/02 13:10:24;;;;;;;7.23;5.40;;;28.10;40.70;;;;;;6301077;28;20232;-61
2021/09/02 13:13:29;;;;;;;5.23;4.73;;;28.00;41.10;;;;;;6340815;28;20228;-60
2021/09/02 13:16:32;;;;;;;5.47;4.80;;;27.80;41.30;;;;;;6336330;28;20224;-60
2021/09/02 13:19:36;;;;;;;5.80;5.20;;;27.70;41.30;;;;;;6333700;28;20233;-60
2021/09/02 13:22:40;;;;;;;5.67;5.10;;;27.60;41.00;;;;;;6338162;28;20222;-60
2021/09/02 13:25:46;;;;;;;5.60;4.70;;;27.70;41.00;;;;;;6337044;28;20229;-60
2021/09/02 13:28:51;;;;;;;5.83;5.33;;;27.80;41.70;;;;;;6336505;28;20233;-61
2021/09/02 13:31:54;;;;;;;5.87;5.37;;;28.00;40.80;;;;;;6327489;28;20236;-61
2021/09/02 13:34:58;;;;;;;6.97;6.30;;;28.00;40.80;;;;;;6343924;28;20233;-59
2021/09/02 13:38:01;;;;;;;5.70;5.20;;;27.80;40.10;;;;;;6348736;27;20236;-59
2021/09/02 13:41:05;;;;;;;6.53;5.90;;;27.60;40.70;;;;;;6344069;28;20232;-60
2021/09/02 13:44:09;;;;;;;5.57;5.13;;;27.80;40.90;;;;;;6336109;28;20217;-60
2021/09/02 13:47:13;;;;;;;5.93;5.43;;;27.80;41.00;;;;;;6333796;28;20224;-60
2021/09/02 13:50:16;;;;;;;5.73;5.23;;;27.60;41.10;;;;;;6335097;28;20240;-60
2021/09/02 13:53:19;;;;;;;6.07;5.57;;;27.40;41.60;;;;;;6336888;28;20306;-60
2021/09/02 13:56:22;;;;;;;5.67;5.10;;;27.40;42.70;;;;;;6336333;28;20229;-60
2021/09/02 13:59:28;;;;;;;5.47;4.97;;;27.30;42.90;;;;;;6329790;28;20574;-61
2021/09/02 14:02:31;;;;;;;5.70;5.20;;;27.20;43.10;;;;;;6336373;27;20240;-60
2021/09/02 14:05:35;;;;;;;6.40;5.70;;;27.00;43.60;;;;;;6333637;28;20584;-60
2021/09/02 14:08:38;;;;;;;6.30;5.63;;;26.90;44.30;;;;;;6340716;28;20298;-60
2021/09/02 14:11:45;;;;;;;5.90;5.40;;;26.40;44.60;;;;;;6330168;28;20744;-60
2021/09/02 14:14:49;;;;;;;6.77;5.70;;;26.30;45.30;;;;;;6328812;28;20229;-60
2021/09/02 14:17:52;;;;;;;5.03;4.63;;;26.20;45.60;;;;;;6323889;28;20241;-60
2021/09/02 14:20:55;;;;;;;6.37;5.67;;;25.90;46.10;;;;;;6323813;28;20229;-61
2021/09/02 14:23:58;;;;;;;6.20;5.37;;;25.50;46.90;;;;;;6324099;28;20229;-60
2021/09/02 14:27:02;;;;;;;5.70;5.20;;;25.40;47.40;;;;;;6323554;28;20722;-60
2021/09/02 14:30:07;;;;;;;6.30;5.80;;;25.50;47.50;;;;;;6323855;28;20225;-60
2021/09/02 14:33:10;;;;;;;5.60;5.10;;;25.60;47.00;;;;;;6334266;28;20225;-59
2021/09/02 14:36:14;;;;;;;5.73;5.23;;;25.10;47.30;;;;;;6327448;28;20218;-60
2021/09/02 14:39:18;;;;;;;6.50;5.53;;;24.80;48.00;;;;;;6305112;28;20229;-60
2021/09/02 14:42:21;;;;;;;8.03;4.90;;;24.80;48.20;;;;;;6313444;28;20269;-60
2021/09/02 14:45:26;;;;;;;5.40;4.90;;;24.90;48.10;;;;;;6300252;28;20231;-60
2021/09/02 14:48:29;;;;;;;6.60;5.50;;;24.90;47.90;;;;;;6297810;28;20230;-60
2021/09/02 14:51:32;;;;;;;5.53;4.70;;;24.80;47.60;;;;;;6299794;28;20388;-60
2021/09/02 14:54:35;;;;;;;5.27;4.50;;;24.90;48.30;;;;;;6322978;28;20703;-60
2021/09/02 14:57:38;;;;;;;8.10;5.43;;;24.90;47.90;;;;;;6322566;28;20234;-60
2021/09/02 15:00:43;;;;;;;6.07;5.10;;;24.90;47.80;;;;;;6322663;28;20248;-59
2021/09/02 15:03:46;;;;;;;5.87;5.37;;;24.90;48.00;;;;;;6330688;28;20297;-60
2021/09/02 15:06:49;;;;;;;5.70;5.13;;;24.90;48.00;;;;;;6341362;28;20226;-59
2021/09/02 15:09:53;;;;;;;6.90;5.83;;;24.80;48.40;;;;;;6308888;28;20549;-60
2021/09/02 15:12:56;;;;;;;6.00;5.50;;;24.90;48.70;;;;;;6297781;28;20207;-60
2021/09/02 15:16:01;;;;;;;6.10;5.60;;;25.00;48.50;;;;;;6321999;28;20221;-60
2021/09/02 15:19:05;;;;;;;5.93;5.43;;;25.00;48.50;;;;;;6322411;28;20218;-59
2021/09/02 15:22:09;;;;;;;5.40;4.90;;;25.10;48.20;;;;;;6322381;28;20704;-60
2021/09/02 15:25:13;;;;;;;6.53;5.30;;;25.00;49.00;;;;;;6322448;28;20310;-60
2021/09/02 15:28:17;;;;;;;5.70;5.00;;;25.10;48.40;;;;;;6332367;28;20229;-60
2021/09/02 15:31:21;;;;;;;6.50;5.90;;;24.90;49.30;;;;;;6347745;28;20225;-59
2021/09/02 15:34:24;;;;;;;5.97;5.47;;;24.60;49.60;;;;;;6347812;28;20232;-60
2021/09/02 15:37:28;;;;;;;6.37;5.80;;;24.40;50.90;;;;;;6322907;28;20226;-59
2021/09/02 15:40:31;;;;;;;6.27;5.77;;;24.40;51.00;;;;;;6322234;28;20545;-59
2021/09/02 15:43:34;;;;;;;6.57;5.97;;;24.60;50.80;;;;;;6331653;28;20265;-59
2021/09/02 15:46:39;;;;;;;6.80;6.20;;;24.70;50.70;;;;;;6346167;28;20217;-60
2021/09/02 15:49:42;;;;;;;7.00;6.40;;;24.70;50.30;;;;;;6334388;28;20328;-59
2021/09/02 15:52:45;;;;;;;6.70;6.00;;;24.80;50.40;;;;;;6333554;28;20221;-60
2021/09/02 15:55:48;;;;;;;6.07;5.47;;;24.40;50.80;;;;;;6334683;28;20222;-59
2021/09/02 15:58:52;;;;;;;6.63;6.03;;;24.40;50.50;;;;;;6329741;28;20261;-60